Time;durP1;ratioP1;P1;durP2;ratioP2;P2;SDS_P1;SDS_P2;PMS_P1;PMS_P2;Temp;Humidity;BMP_temperature;BMP_pressure;BME280_temperature;BME280_humidity;BME280_pressure;Samples;Min_cycle;Max_cycle;Signal;HPM_P1;HPM_P2
2023/03/02 00:01:48;;;;;;;13.17;10.10;;;3.00;99.90;;;;;;4938524;29;20177;-90
2023/03/02 00:04:48;;;;;;;16.30;9.67;;;2.90;99.90;;;;;;4949385;29;20212;-91
2023/03/02 00:07:51;;;;;;;16.30;10.60;;;2.80;99.90;;;;;;4936391;29;20212;-93
2023/03/02 00:10:19;;;;;;;14.53;9.50;;;2.90;99.90;;;;;;4939405;29;20237;-91
2023/03/02 00:12:47;;;;;;;16.40;9.80;;;2.80;99.90;;;;;;4941319;29;20216;-88
2023/03/02 00:15:20;;;;;;;15.83;10.80;;;2.80;99.90;;;;;;4925116;29;20177;-85
2023/03/02 00:21:47;;;;;;;12.27;8.83;;;2.70;99.90;;;;;;4939891;29;20173;-95
2023/03/02 00:24:20;;;;;;;13.70;9.77;;;2.70;99.90;;;;;;4932003;29;20237;-96
2023/03/02 00:27:05;;;;;;;15.67;11.37;;;2.70;99.90;;;;;;4917788;29;20237;-96
2023/03/02 00:29:41;;;;;;;14.00;8.97;;;2.70;99.90;;;;;;4933124;29;20213;-96
2023/03/02 00:32:16;;;;;;;12.77;8.83;;;2.80;99.90;;;;;;4934435;29;20193;-96
2023/03/02 00:35:23;;;;;;;12.90;9.47;;;2.70;99.90;;;;;;4930697;29;20169;-91
2023/03/02 00:37:58;;;;;;;13.10;8.37;;;2.70;99.90;;;;;;4917192;29;20198;-87
2023/03/02 00:40:25;;;;;;;11.97;9.27;;;2.40;99.90;;;;;;4924068;29;20329;-95
2023/03/02 00:42:55;;;;;;;14.13;9.20;;;2.70;99.90;;;;;;4941405;29;20204;-92
2023/03/02 00:45:38;;;;;;;13.07;9.73;;;2.70;99.90;;;;;;4947077;29;20169;-89
2023/03/02 00:48:35;;;;;;;14.37;9.63;;;2.70;99.90;;;;;;4945377;29;20193;-89
2023/03/02 00:51:19;;;;;;;14.80;9.23;;;2.60;99.90;;;;;;4939797;29;20261;-96
2023/03/02 00:53:49;;;;;;;16.17;9.63;;;2.50;99.90;;;;;;4939712;29;20170;-96
2023/03/02 00:56:21;;;;;;;15.97;9.70;;;2.50;99.90;;;;;;4939471;29;20185;-96
2023/03/02 00:58:49;;;;;;;15.87;9.43;;;2.50;99.90;;;;;;4943074;29;20172;-95
2023/03/02 01:01:21;;;;;;;14.10;9.30;;;2.40;99.90;;;;;;4953610;29;20193;-96
2023/03/02 01:03:47;;;;;;;12.50;9.00;;;2.40;99.90;;;;;;4958352;29;20620;-96
2023/03/02 01:06:20;;;;;;;15.57;9.43;;;2.40;99.90;;;;;;4950206;29;20275;-95
2023/03/02 01:08:51;;;;;;;15.30;8.93;;;2.30;99.90;;;;;;4938401;29;20221;-95
2023/03/02 01:11:22;;;;;;;12.47;9.30;;;2.40;99.90;;;;;;4936727;29;20193;-95
2023/03/02 01:13:53;;;;;;;13.70;9.00;;;2.30;99.90;;;;;;4941011;29;20173;-96
2023/03/02 01:16:22;;;;;;;12.80;9.30;;;2.30;1.00;;;;;;4940402;29;20162;-91
2023/03/02 01:18:47;;;;;;;11.57;8.87;;;2.30;1.00;;;;;;4940333;29;20181;-90
2023/03/02 01:21:15;;;;;;;15.33;9.90;;;2.30;1.00;;;;;;4942511;29;20177;-95
2023/03/02 01:23:44;;;;;;;13.03;8.63;;;2.20;1.00;;;;;;4958297;29;20185;-90
2023/03/02 01:26:42;;;;;;;13.10;9.20;;;2.20;1.00;;;;;;4961356;29;20180;-96
2023/03/02 01:29:13;;;;;;;12.13;8.20;;;2.50;1.00;;;;;;4961357;29;20685;-95
2023/03/02 01:31:39;;;;;;;14.43;8.53;;;2.20;1.00;;;;;;4961371;29;20153;-92
2023/03/02 01:34:14;;;;;;;13.13;8.73;;;2.20;1.00;;;;;;4958240;29;20176;-96
2023/03/02 01:36:39;;;;;;;15.43;9.87;;;2.20;1.00;;;;;;4958154;29;20188;-90
2023/03/02 01:39:06;;;;;;;12.30;9.33;;;2.10;1.00;;;;;;4960553;29;20165;-94
2023/03/02 01:41:43;;;;;;;14.60;8.10;;;2.10;1.00;;;;;;4948225;29;20252;-96
2023/03/02 01:44:40;;;;;;;14.77;9.30;;;2.10;1.00;;;;;;4930366;29;20271;-96
2023/03/02 01:47:32;;;;;;;12.03;8.77;;;2.10;1.00;;;;;;4928322;29;20542;-96
2023/03/02 01:50:16;;;;;;;12.40;9.20;;;2.20;1.00;;;;;;4927130;29;20214;-95
2023/03/02 01:52:44;;;;;;;11.80;8.23;;;2.00;1.00;;;;;;4927815;29;20192;-95
2023/03/02 01:55:14;;;;;;;11.43;8.93;;;2.00;1.00;;;;;;4922823;29;20162;-93
2023/03/02 01:57:44;;;;;;;12.03;8.03;;;2.00;1.00;;;;;;4941845;29;20182;-95
2023/03/02 02:00:24;;;;;;;11.53;8.13;;;2.00;1.00;;;;;;4934980;29;20237;-94
2023/03/02 02:03:09;;;;;;;13.53;8.00;;;1.90;1.00;;;;;;4930669;29;20220;-96
2023/03/02 02:06:07;;;;;;;16.00;8.87;;;2.10;1.00;;;;;;4927456;29;20185;-96
2023/03/02 02:08:36;;;;;;;12.70;7.93;;;1.90;1.00;;;;;;4929504;29;20289;-96
2023/03/02 02:11:04;;;;;;;14.67;9.07;;;1.90;1.00;;;;;;4915353;29;20233;-96
2023/03/02 02:13:32;;;;;;;13.67;8.87;;;1.90;1.00;;;;;;4929156;29;20190;-96
2023/03/02 02:16:02;;;;;;;12.57;8.47;;;2.00;1.00;;;;;;4930092;29;20177;-96
2023/03/02 02:18:44;;;;;;;13.60;7.73;;;2.00;1.00;;;;;;4926754;29;20190;-94
2023/03/02 02:21:11;;;;;;;12.03;8.67;;;2.00;1.00;;;;;;4924643;29;20158;-91
2023/03/02 02:24:08;;;;;;;11.33;8.30;;;2.10;1.00;;;;;;4924167;29;20175;-92
2023/03/02 02:26:48;;;;;;;12.80;8.60;;;2.10;1.00;;;;;;4924096;29;20166;-92
2023/03/02 02:29:37;;;;;;;12.47;7.03;;;1.90;1.00;;;;;;4923802;29;20236;-94
2023/03/02 02:32:16;;;;;;;13.37;7.77;;;1.80;1.00;;;;;;4941703;29;20174;-88
2023/03/02 02:35:17;;;;;;;13.77;8.67;;;1.70;1.00;;;;;;4942861;29;20158;-91
2023/03/02 02:41:38;;;;;;;9.93;7.77;;;1.70;1.00;;;;;;4938443;29;20196;-95
2023/03/02 02:44:20;;;;;;;12.57;8.27;;;1.70;1.00;;;;;;4913011;29;20200;-96
2023/03/02 02:46:46;;;;;;;14.47;9.10;;;1.80;1.00;;;;;;4928747;29;20177;-95
2023/03/02 02:49:35;;;;;;;10.90;8.00;;;1.80;1.00;;;;;;4941934;29;20209;-90
2023/03/02 02:52:04;;;;;;;15.53;8.13;;;1.80;1.00;;;;;;4940819;29;20189;-95
2023/03/02 02:54:31;;;;;;;10.53;7.40;;;1.80;1.00;;;;;;4931656;29;20174;-96
2023/03/02 02:57:00;;;;;;;12.17;8.00;;;1.80;1.00;;;;;;4931661;29;20169;-96
2023/03/02 02:59:31;;;;;;;12.07;8.27;;;1.70;1.00;;;;;;4943454;29;20193;-96
2023/03/02 03:02:51;;;;;;;12.20;8.30;;;1.70;1.00;;;;;;4948025;29;20523;-96
2023/03/02 03:05:22;;;;;;;15.87;7.40;;;1.60;1.00;;;;;;4948112;29;20172;-96
2023/03/02 03:07:50;;;;;;;10.70;8.10;;;1.60;1.00;;;;;;4948120;29;20193;-96
2023/03/02 03:10:33;;;;;;;13.47;8.40;;;1.60;1.00;;;;;;4951590;28;20226;-96
2023/03/02 03:13:01;;;;;;;12.70;8.33;;;1.60;1.00;;;;;;4919503;29;20170;-88
2023/03/02 03:15:28;;;;;;;11.23;8.03;;;1.70;1.00;;;;;;4926794;29;20206;-89
2023/03/02 03:18:00;;;;;;;11.90;8.30;;;1.70;1.00;;;;;;4934405;29;20221;-96
2023/03/02 03:20:27;;;;;;;14.13;8.63;;;1.60;1.00;;;;;;4935419;29;20170;-96
2023/03/02 03:22:53;;;;;;;8.83;7.20;;;1.60;1.00;;;;;;4943825;29;20173;-96
2023/03/02 03:25:25;;;;;;;14.70;7.83;;;1.60;1.00;;;;;;4948681;29;20208;-94
2023/03/02 03:27:53;;;;;;;9.87;7.50;;;1.80;1.00;;;;;;4933396;29;20189;-94
2023/03/02 03:30:19;;;;;;;13.53;8.10;;;1.60;1.00;;;;;;4931354;29;20189;-96
2023/03/02 03:32:44;;;;;;;11.47;8.40;;;1.50;1.00;;;;;;4909045;29;20189;-96
2023/03/02 03:35:12;;;;;;;14.20;9.10;;;1.50;1.00;;;;;;4928607;29;20371;-96
2023/03/02 03:37:40;;;;;;;14.87;8.50;;;1.70;1.00;;;;;;4909799;29;20210;-92
2023/03/02 03:40:08;;;;;;;11.47;8.17;;;1.50;1.00;;;;;;4907020;29;20237;-96
2023/03/02 03:42:36;;;;;;;12.20;8.30;;;1.60;1.00;;;;;;4940409;29;20201;-96
2023/03/02 03:45:01;;;;;;;16.17;8.50;;;1.60;1.00;;;;;;4936154;29;20240;-96
2023/03/02 03:47:29;;;;;;;11.40;8.57;;;1.70;1.00;;;;;;4951285;29;20197;-96
2023/03/02 03:49:57;;;;;;;13.53;9.00;;;1.70;1.00;;;;;;4947985;29;20212;-96
2023/03/02 03:52:29;;;;;;;11.70;7.63;;;1.70;1.00;;;;;;4914564;29;20173;-96
2023/03/02 03:55:00;;;;;;;14.37;9.30;;;1.60;1.00;;;;;;4923318;29;20169;-96
2023/03/02 03:57:27;;;;;;;11.07;7.90;;;1.60;1.00;;;;;;4923256;29;20174;-96
2023/03/02 03:59:53;;;;;;;12.77;8.20;;;1.60;1.00;;;;;;4925045;29;20201;-96
2023/03/02 04:02:21;;;;;;;10.33;8.23;;;1.50;1.00;;;;;;4909875;29;20646;-96
2023/03/02 04:04:47;;;;;;;12.37;7.47;;;1.50;1.00;;;;;;4926450;29;20181;-96
2023/03/02 04:07:15;;;;;;;10.17;7.67;;;1.50;1.00;;;;;;4939577;29;20199;-94
2023/03/02 04:09:44;;;;;;;14.83;8.23;;;1.50;1.00;;;;;;4940830;29;20209;-92
2023/03/02 04:12:10;;;;;;;10.43;7.37;;;1.50;1.00;;;;;;4924035;29;20178;-91
2023/03/02 04:14:58;;;;;;;10.63;7.73;;;1.40;1.00;;;;;;4926636;29;20521;-96
2023/03/02 04:17:25;;;;;;;11.17;7.77;;;1.40;1.00;;;;;;4922744;29;20177;-96
2023/03/02 04:20:08;;;;;;;13.93;8.03;;;1.40;1.00;;;;;;4937276;29;20158;-96
2023/03/02 04:22:44;;;;;;;14.27;8.73;;;1.30;1.00;;;;;;4940951;29;20176;-90
2023/03/02 04:25:21;;;;;;;12.57;7.90;;;1.20;1.00;;;;;;4938537;29;20197;-96
2023/03/02 04:27:53;;;;;;;12.57;8.63;;;1.30;1.00;;;;;;4916232;29;20189;-96
2023/03/02 04:30:23;;;;;;;11.60;8.17;;;1.50;1.00;;;;;;4915097;29;20193;-96
2023/03/02 04:32:51;;;;;;;15.20;8.33;;;1.30;1.00;;;;;;4930759;29;20285;-96
2023/03/02 04:35:20;;;;;;;10.50;7.87;;;1.30;1.00;;;;;;4915331;29;20229;-96
2023/03/02 04:37:47;;;;;;;12.40;7.90;;;1.30;1.00;;;;;;4936907;29;20225;-96
2023/03/02 04:40:17;;;;;;;13.13;8.20;;;1.30;1.00;;;;;;4939169;29;20193;-94
2023/03/02 04:42:46;;;;;;;13.50;9.30;;;1.20;1.00;;;;;;4938931;29;20177;-96
2023/03/02 04:45:15;;;;;;;13.37;9.47;;;1.40;1.00;;;;;;4944448;29;20173;-96
2023/03/02 04:47:43;;;;;;;13.00;8.60;;;1.40;1.00;;;;;;4946646;29;20195;-92
2023/03/02 04:50:13;;;;;;;14.60;8.90;;;1.40;1.00;;;;;;4959792;28;20201;-92
2023/03/02 04:52:40;;;;;;;12.93;8.23;;;1.30;1.00;;;;;;4959645;28;20165;-91
2023/03/02 04:55:26;;;;;;;12.70;7.60;;;1.30;1.00;;;;;;4958918;28;20173;-94
2023/03/02 04:57:53;;;;;;;11.60;8.03;;;1.30;1.00;;;;;;4960195;28;20161;-91
2023/03/02 05:01:11;;;;;;;15.27;8.63;;;1.20;1.00;;;;;;4956154;29;20181;-96
2023/03/02 05:03:38;;;;;;;11.70;7.67;;;1.20;1.00;;;;;;4948222;29;20261;-94
2023/03/02 05:06:07;;;;;;;11.07;7.77;;;1.10;1.00;;;;;;4946086;29;20181;-96
2023/03/02 05:08:34;;;;;;;16.13;8.23;;;1.10;1.00;;;;;;4949333;29;20209;-95
2023/03/02 05:11:06;;;;;;;10.23;7.43;;;1.20;1.00;;;;;;4948965;29;20195;-96
2023/03/02 05:13:35;;;;;;;13.90;7.93;;;1.10;1.00;;;;;;4943412;29;20180;-96
2023/03/02 05:16:36;;;;;;;14.93;7.63;;;1.30;1.00;;;;;;4958387;29;20176;-95
2023/03/02 05:19:05;;;;;;;12.20;7.30;;;1.40;1.00;;;;;;4956351;28;20248;-88
2023/03/02 05:21:32;;;;;;;13.87;7.67;;;1.10;1.00;;;;;;4960886;29;20224;-93
2023/03/02 05:24:00;;;;;;;12.13;8.23;;;1.00;1.00;;;;;;4956546;29;20169;-95
2023/03/02 05:26:28;;;;;;;10.30;7.03;;;1.10;1.00;;;;;;4958154;29;20245;-96
2023/03/02 05:28:55;;;;;;;10.33;7.60;;;1.00;1.00;;;;;;4958279;29;20304;-96
2023/03/02 05:31:28;;;;;;;21.70;8.67;;;1.00;1.00;;;;;;4951755;29;20173;-95
2023/03/02 05:33:54;;;;;;;13.10;8.03;;;0.90;1.00;;;;;;4931275;29;20228;-96
2023/03/02 05:36:22;;;;;;;11.67;8.87;;;0.90;1.00;;;;;;4954027;28;20173;-87
2023/03/02 05:38:51;;;;;;;16.37;8.37;;;0.90;1.00;;;;;;4957138;29;20264;-95
2023/03/02 05:41:27;;;;;;;15.40;8.60;;;0.90;1.00;;;;;;4944994;29;20170;-95
2023/03/02 05:43:53;;;;;;;15.80;8.17;;;0.90;1.00;;;;;;4922799;29;20249;-94
2023/03/02 05:46:49;;;;;;;14.03;8.40;;;0.90;1.00;;;;;;4921946;29;20182;-96
2023/03/02 05:49:19;;;;;;;15.50;8.87;;;1.00;1.00;;;;;;4915832;29;20202;-96
2023/03/02 05:51:46;;;;;;;12.00;8.87;;;0.80;1.00;;;;;;4921419;29;20166;-90
2023/03/02 05:54:12;;;;;;;14.30;8.67;;;0.80;1.00;;;;;;4923396;29;20217;-96
2023/03/02 05:56:40;;;;;;;14.67;10.10;;;0.80;1.00;;;;;;4917236;29;20189;-90
2023/03/02 05:59:07;;;;;;;14.50;9.70;;;0.90;1.00;;;;;;4940137;29;20177;-90
2023/03/02 06:01:35;;;;;;;17.97;10.37;;;0.80;1.00;;;;;;4941737;29;20182;-91
2023/03/02 06:04:01;;;;;;;13.57;9.43;;;0.80;1.00;;;;;;4938178;29;20190;-96
2023/03/02 06:06:27;;;;;;;17.93;9.47;;;0.80;1.00;;;;;;4911469;29;20654;-95
2023/03/02 06:08:58;;;;;;;13.17;8.83;;;0.90;1.00;;;;;;4925207;29;20213;-91
2023/03/02 06:11:25;;;;;;;12.30;7.73;;;1.00;1.00;;;;;;4925631;29;20178;-96
2023/03/02 06:13:51;;;;;;;14.27;8.70;;;1.00;1.00;;;;;;4907446;29;20380;-96
2023/03/02 06:16:17;;;;;;;10.63;7.87;;;0.90;1.00;;;;;;4902868;29;20174;-95
2023/03/02 06:18:44;;;;;;;16.23;8.30;;;0.80;1.00;;;;;;4913762;29;20170;-96
2023/03/02 06:21:12;;;;;;;13.03;8.63;;;0.80;1.00;;;;;;4916404;29;20181;-96
2023/03/02 06:23:37;;;;;;;13.30;8.27;;;0.90;1.00;;;;;;4930599;29;20166;-96
2023/03/02 06:26:10;;;;;;;16.40;8.17;;;0.90;1.00;;;;;;4942280;29;20218;-96
2023/03/02 06:28:36;;;;;;;13.43;8.50;;;0.80;1.00;;;;;;4942515;29;20192;-89
2023/03/02 06:31:31;;;;;;;12.67;8.50;;;0.80;1.00;;;;;;4942522;29;20170;-88
2023/03/02 06:33:57;;;;;;;16.90;8.17;;;0.80;1.00;;;;;;4941778;29;20182;-90
2023/03/02 06:36:37;;;;;;;12.37;7.93;;;0.80;1.00;;;;;;4942093;29;20210;-90
2023/03/02 06:39:14;;;;;;;13.10;8.37;;;0.80;1.00;;;;;;4936075;29;20173;-90
2023/03/02 06:41:44;;;;;;;14.97;8.27;;;0.80;1.00;;;;;;4937825;29;20189;-96
2023/03/02 06:44:12;;;;;;;12.30;8.17;;;0.90;1.00;;;;;;4930027;29;20173;-93
2023/03/02 06:46:39;;;;;;;16.30;8.13;;;0.80;1.00;;;;;;4924228;29;20170;-96
2023/03/02 06:49:11;;;;;;;15.53;8.47;;;0.90;1.00;;;;;;4926425;29;20197;-94
2023/03/02 06:51:38;;;;;;;14.93;9.20;;;0.90;1.00;;;;;;4935104;29;20177;-93
2023/03/02 06:54:07;;;;;;;16.10;8.50;;;0.90;1.00;;;;;;4934016;29;20277;-88
2023/03/02 06:56:33;;;;;;;11.47;7.30;;;0.90;1.00;;;;;;4899121;29;20174;-89
2023/03/02 06:58:58;;;;;;;15.83;8.37;;;0.90;1.00;;;;;;4902979;29;20226;-87
2023/03/02 07:01:24;;;;;;;11.87;7.97;;;0.90;1.00;;;;;;4916945;29;20285;-88
2023/03/02 07:03:50;;;;;;;14.90;8.57;;;0.90;1.00;;;;;;4926423;29;20174;-91
2023/03/02 07:06:16;;;;;;;10.53;7.57;;;0.90;1.00;;;;;;4940074;29;20170;-89
2023/03/02 07:08:41;;;;;;;14.93;9.27;;;0.90;1.00;;;;;;4928588;29;20218;-91
2023/03/02 07:11:10;;;;;;;14.13;8.57;;;0.80;1.00;;;;;;4917456;29;20283;-92
2023/03/02 07:13:37;;;;;;;11.60;8.33;;;0.90;1.00;;;;;;4920447;29;20257;-87
2023/03/02 07:16:13;;;;;;;15.13;9.17;;;0.90;1.00;;;;;;4900312;29;20265;-90
2023/03/02 07:18:39;;;;;;;16.17;10.17;;;1.10;1.00;;;;;;4937595;29;20219;-89
2023/03/02 07:21:06;;;;;;;16.67;8.97;;;1.00;1.00;;;;;;4936692;29;20180;-90
2023/03/02 07:23:32;;;;;;;15.07;8.43;;;1.10;1.00;;;;;;4941221;29;20236;-88
2023/03/02 07:25:57;;;;;;;19.30;9.33;;;1.10;1.00;;;;;;4952994;29;20176;-89
2023/03/02 07:28:24;;;;;;;15.43;8.57;;;1.10;1.00;;;;;;4949244;29;20688;-89
2023/03/02 07:30:52;;;;;;;15.90;10.40;;;1.20;1.00;;;;;;4942385;29;20248;-89
2023/03/02 07:33:23;;;;;;;17.50;10.60;;;1.20;1.00;;;;;;4940385;29;20170;-85
2023/03/02 07:35:50;;;;;;;13.73;8.33;;;1.20;1.00;;;;;;4937466;29;20180;-87
2023/03/02 07:38:16;;;;;;;16.40;8.00;;;1.20;1.00;;;;;;4937623;29;20244;-86
2023/03/02 07:40:43;;;;;;;14.87;9.27;;;1.10;1.00;;;;;;4936740;29;20650;-88
2023/03/02 07:43:10;;;;;;;22.73;9.57;;;1.20;1.00;;;;;;4936983;29;20177;-86
2023/03/02 07:45:37;;;;;;;12.83;8.10;;;1.20;1.00;;;;;;4937670;29;20177;-87
2023/03/02 07:48:03;;;;;;;15.80;8.37;;;1.20;1.00;;;;;;4940966;29;20188;-90
2023/03/02 07:50:31;;;;;;;14.33;9.00;;;1.20;1.00;;;;;;4942338;29;20184;-91
2023/03/02 07:52:57;;;;;;;19.37;10.83;;;1.20;1.00;;;;;;4940837;29;20180;-90
2023/03/02 07:55:22;;;;;;;14.50;9.03;;;1.20;1.00;;;;;;4938745;29;20212;-90
2023/03/02 07:57:49;;;;;;;16.50;10.17;;;1.30;1.00;;;;;;4943505;29;20310;-89
2023/03/02 08:00:17;;;;;;;15.10;9.50;;;1.40;1.00;;;;;;4940116;29;20185;-90
2023/03/02 08:02:43;;;;;;;18.23;10.03;;;1.40;1.00;;;;;;4937015;29;20189;-89
2023/03/02 08:05:10;;;;;;;16.73;10.13;;;1.50;1.00;;;;;;4941143;29;20181;-88
2023/03/02 08:07:36;;;;;;;14.03;9.87;;;1.60;1.00;;;;;;4944652;29;20288;-91
2023/03/02 08:10:03;;;;;;;13.20;9.77;;;1.70;1.00;;;;;;4938816;29;20212;-91
2023/03/02 08:12:30;;;;;;;14.23;9.67;;;1.80;1.00;;;;;;4921569;29;20180;-88
2023/03/02 08:17:46;;;;;;;14.13;10.10;;;2.00;1.00;;;;;;4940792;29;20272;-88
2023/03/02 08:20:12;;;;;;;16.80;10.27;;;2.00;1.00;;;;;;4939613;29;20219;-89
2023/03/02 08:22:38;;;;;;;16.10;9.07;;;2.10;1.00;;;;;;4951959;28;20188;-90
2023/03/02 08:25:25;;;;;;;16.60;10.23;;;2.10;1.00;;;;;;4951343;29;20204;-87
2023/03/02 08:27:57;;;;;;;16.13;9.40;;;2.10;1.00;;;;;;4947363;29;20195;-90
2023/03/02 08:30:22;;;;;;;13.07;9.33;;;2.30;1.00;;;;;;4940637;29;20228;-90
2023/03/02 08:32:48;;;;;;;13.17;9.13;;;2.30;1.00;;;;;;4938233;29;20191;-89
2023/03/02 08:35:14;;;;;;;14.00;9.37;;;2.30;1.00;;;;;;4938619;29;20629;-88
2023/03/02 08:37:45;;;;;;;12.53;8.47;;;2.40;1.00;;;;;;4937270;29;20192;-88
2023/03/02 08:40:11;;;;;;;15.43;9.07;;;2.50;1.00;;;;;;4938352;29;20181;-90
2023/03/02 08:42:36;;;;;;;14.27;9.30;;;2.50;1.00;;;;;;4942053;29;20181;-89
2023/03/02 08:45:02;;;;;;;14.53;9.00;;;2.70;1.00;;;;;;4944607;29;20564;-90
2023/03/02 08:47:28;;;;;;;13.80;9.20;;;2.60;1.00;;;;;;4942412;29;20291;-89
2023/03/02 08:49:56;;;;;;;13.97;8.50;;;2.60;1.00;;;;;;4940274;29;20213;-90
2023/03/02 08:52:22;;;;;;;15.20;9.40;;;2.60;1.00;;;;;;4944911;29;20212;-90
2023/03/02 08:54:47;;;;;;;14.50;8.63;;;2.60;1.00;;;;;;4948506;29;20181;-90
2023/03/02 08:57:13;;;;;;;10.80;7.93;;;2.70;1.00;;;;;;4953068;29;20208;-92
2023/03/02 08:59:39;;;;;;;14.40;9.63;;;3.00;1.00;;;;;;4941370;29;20185;-92
2023/03/02 09:02:10;;;;;;;12.80;8.67;;;2.80;1.00;;;;;;4941096;29;20261;-91
2023/03/02 09:04:35;;;;;;;13.03;9.17;;;2.90;1.00;;;;;;4948426;29;20532;-89
2023/03/02 09:07:01;;;;;;;13.37;9.47;;;3.00;1.00;;;;;;4944550;29;20669;-91
2023/03/02 09:09:27;;;;;;;14.97;9.20;;;3.20;1.00;;;;;;4934961;29;20565;-91
2023/03/02 09:11:52;;;;;;;16.23;9.47;;;3.20;99.90;;;;;;4924259;29;20702;-90
2023/03/02 09:14:18;;;;;;;12.70;8.80;;;3.30;99.90;;;;;;4931768;29;20181;-90
2023/03/02 09:16:45;;;;;;;13.10;9.43;;;3.20;99.90;;;;;;4939935;29;20158;-88
2023/03/02 09:19:13;;;;;;;12.57;9.40;;;3.20;99.90;;;;;;4932514;29;20161;-89
2023/03/02 09:21:45;;;;;;;13.17;10.17;;;3.30;99.90;;;;;;4925278;29;20177;-91
2023/03/02 09:24:20;;;;;;;15.40;9.63;;;3.50;99.90;;;;;;4922956;29;20268;-89
2023/03/02 09:26:49;;;;;;;15.10;10.10;;;3.60;99.90;;;;;;4922219;29;20181;-90
2023/03/02 09:29:14;;;;;;;14.40;10.00;;;3.60;99.90;;;;;;4920841;29;20233;-93
2023/03/02 09:31:41;;;;;;;13.97;9.50;;;3.70;99.90;;;;;;4922634;29;20177;-91
2023/03/02 09:34:08;;;;;;;18.20;10.03;;;3.70;99.90;;;;;;4923216;29;20186;-90
2023/03/02 09:36:33;;;;;;;13.43;9.40;;;3.70;99.90;;;;;;4934328;29;20201;-89
2023/03/02 09:38:59;;;;;;;17.77;10.17;;;3.70;99.90;;;;;;4931533;29;20173;-89
2023/03/02 09:41:35;;;;;;;16.70;10.27;;;3.70;99.90;;;;;;4928196;29;20188;-88
2023/03/02 09:44:31;;;;;;;17.20;10.37;;;3.80;99.90;;;;;;4923431;29;20177;-90
2023/03/02 09:47:23;;;;;;;17.47;10.03;;;3.80;99.90;;;;;;4922052;29;20185;-91
2023/03/02 09:50:03;;;;;;;16.43;9.70;;;3.80;99.90;;;;;;4921010;29;20241;-90
2023/03/02 09:52:51;;;;;;;20.00;10.90;;;3.90;99.90;;;;;;4921340;29;20177;-90
2023/03/02 09:55:26;;;;;;;16.13;10.83;;;3.90;99.90;;;;;;4922818;29;20185;-90
2023/03/02 09:57:53;;;;;;;19.57;11.40;;;4.00;99.90;;;;;;4924497;29;20181;-90
2023/03/02 10:00:30;;;;;;;16.70;10.93;;;4.10;99.90;;;;;;4922811;29;20542;-91
2023/03/02 10:03:10;;;;;;;17.80;10.90;;;4.20;99.90;;;;;;4920869;29;20188;-91
2023/03/02 10:05:50;;;;;;;15.27;11.13;;;4.30;99.90;;;;;;4919645;29;20273;-90
2023/03/02 10:08:23;;;;;;;16.67;10.50;;;4.40;42.00;;;;;;4920071;29;20197;-90
2023/03/02 10:10:55;;;;;;;15.20;10.40;;;4.40;1.00;;;;;;4921631;29;20174;-90
2023/03/02 10:13:45;;;;;;;16.50;11.80;;;4.40;69.50;;;;;;4920770;29;20191;-90
2023/03/02 10:16:35;;;;;;;14.10;10.00;;;4.50;1.00;;;;;;4941788;29;20200;-87
2023/03/02 10:19:32;;;;;;;17.87;12.20;;;4.70;1.00;;;;;;4935803;29;20188;-90
2023/03/02 10:22:24;;;;;;;16.63;12.33;;;4.90;1.00;;;;;;4930014;29;20184;-86
2023/03/02 10:25:08;;;;;;;19.50;12.20;;;5.00;1.00;;;;;;4918162;29;20189;-90
2023/03/02 10:27:40;;;;;;;15.97;11.43;;;5.10;99.90;;;;;;4918297;29;20193;-89
2023/03/02 10:30:35;;;;;;;21.27;12.13;;;5.00;1.00;;;;;;4942338;29;20209;-87
2023/03/02 10:33:18;;;;;;;15.70;11.40;;;4.90;1.00;;;;;;4941103;29;20170;-87
2023/03/02 10:35:52;;;;;;;20.90;11.97;;;5.00;99.90;;;;;;4942295;29;20253;-88
2023/03/02 10:38:36;;;;;;;18.40;11.73;;;5.10;99.90;;;;;;4939591;29;20280;-90
2023/03/02 10:41:08;;;;;;;17.73;12.53;;;5.10;88.50;;;;;;4935803;29;20174;-87
2023/03/02 10:43:57;;;;;;;17.13;12.03;;;5.30;99.90;;;;;;4914927;29;20208;-88
2023/03/02 10:46:23;;;;;;;16.63;11.67;;;5.30;99.90;;;;;;4907463;29;20185;-87
2023/03/02 10:49:00;;;;;;;18.50;12.30;;;5.20;1.00;;;;;;4924774;29;20220;-88
2023/03/02 10:51:34;;;;;;;21.23;13.03;;;5.30;1.00;;;;;;4905249;29;20204;-87
2023/03/02 10:54:05;;;;;;;20.30;13.70;;;5.40;1.00;;;;;;4922105;29;20656;-89
2023/03/02 10:56:50;;;;;;;20.13;12.10;;;5.60;1.00;;;;;;4928048;29;20146;-88
2023/03/02 10:59:28;;;;;;;24.57;13.77;;;5.60;1.00;;;;;;4941535;29;20173;-86
2023/03/02 11:02:02;;;;;;;21.40;13.90;;;5.60;99.90;;;;;;4941062;29;20217;-86
2023/03/02 11:04:29;;;;;;;26.13;13.20;;;5.70;1.00;;;;;;4924318;29;20502;-89
2023/03/02 11:06:55;;;;;;;22.50;13.60;;;5.70;1.00;;;;;;4939817;29;20249;-88
2023/03/02 11:09:22;;;;;;;22.33;14.77;;;5.80;99.90;;;;;;4940245;29;20248;-89
2023/03/02 11:11:53;;;;;;;19.40;12.73;;;5.90;1.00;;;;;;4934455;29;20225;-86
2023/03/02 11:14:38;;;;;;;20.10;13.10;;;6.30;99.90;;;;;;4927597;29;20181;-88
2023/03/02 11:17:31;;;;;;;20.13;13.40;;;6.20;1.00;;;;;;4921229;29;20263;-88
2023/03/02 11:19:57;;;;;;;19.00;13.03;;;6.30;99.90;;;;;;4922144;29;20185;-89
2023/03/02 11:22:45;;;;;;;20.70;13.33;;;6.20;1.00;;;;;;4925917;29;20634;-89
2023/03/02 11:25:25;;;;;;;19.53;13.87;;;6.30;1.00;;;;;;4928319;29;20169;-88
2023/03/02 11:28:00;;;;;;;20.17;12.97;;;6.30;99.90;;;;;;4924928;29;20219;-89
2023/03/02 11:30:28;;;;;;;20.13;13.77;;;6.50;99.90;;;;;;4931351;29;20268;-88
2023/03/02 11:33:26;;;;;;;18.23;12.13;;;6.50;99.90;;;;;;4927419;29;20180;-89
2023/03/02 11:36:03;;;;;;;19.80;13.10;;;6.50;99.90;;;;;;4920631;29;20193;-88
2023/03/02 11:38:35;;;;;;;19.33;13.37;;;6.50;1.00;;;;;;4923074;29;20180;-87
2023/03/02 11:41:26;;;;;;;21.50;13.00;;;6.60;99.90;;;;;;4936317;29;20213;-87
2023/03/02 11:44:13;;;;;;;19.67;11.53;;;6.70;1.00;;;;;;4934430;29;20280;-87
2023/03/02 11:46:40;;;;;;;20.40;13.20;;;6.60;99.90;;;;;;4931802;29;20198;-88
2023/03/02 11:49:18;;;;;;;19.80;13.00;;;6.60;99.90;;;;;;4928153;29;20201;-90
2023/03/02 11:52:02;;;;;;;21.20;14.40;;;6.70;1.00;;;;;;4905161;29;20661;-90
2023/03/02 11:54:43;;;;;;;22.20;13.67;;;6.90;99.90;;;;;;4923186;29;20166;-87
2023/03/02 11:57:28;;;;;;;19.67;13.23;;;6.90;1.00;;;;;;4924105;29;20173;-90
2023/03/02 11:59:57;;;;;;;18.23;13.27;;;7.00;1.00;;;;;;4921811;29;20178;-90
2023/03/02 12:02:23;;;;;;;19.30;13.07;;;7.00;99.90;;;;;;4913475;29;20185;-86
2023/03/02 12:04:59;;;;;;;24.43;14.50;;;7.00;99.90;;;;;;4938985;29;20209;-84
2023/03/02 12:07:26;;;;;;;29.40;15.03;;;7.20;1.00;;;;;;4929312;29;20193;-88
2023/03/02 12:10:06;;;;;;;20.33;13.70;;;7.30;99.90;;;;;;4917235;29;20257;-89
2023/03/02 12:13:08;;;;;;;23.53;15.00;;;7.40;23.40;;;;;;4933549;29;20178;-88
2023/03/02 12:15:46;;;;;;;22.23;13.70;;;7.50;99.90;;;;;;4930018;29;20635;-88
2023/03/02 12:18:28;;;;;;;20.13;13.87;;;7.60;15.50;;;;;;4922181;29;20185;-87
2023/03/02 12:21:10;;;;;;;21.33;12.90;;;7.50;99.90;;;;;;4922319;29;20638;-88
2023/03/02 12:23:52;;;;;;;20.93;12.70;;;7.60;99.90;;;;;;4921197;29;20237;-89
2023/03/02 12:26:18;;;;;;;19.20;13.67;;;7.60;1.00;;;;;;4922076;29;20206;-88
2023/03/02 12:29:20;;;;;;;21.03;13.57;;;7.60;99.90;;;;;;4918652;29;20637;-89
2023/03/02 12:31:49;;;;;;;18.00;13.00;;;7.70;1.00;;;;;;4923612;29;20173;-90
2023/03/02 12:34:23;;;;;;;26.67;13.93;;;7.80;1.00;;;;;;4922263;29;20189;-89
2023/03/02 12:37:23;;;;;;;19.83;13.40;;;7.70;1.00;;;;;;4923998;29;20225;-89
2023/03/02 12:40:24;;;;;;;22.30;14.93;;;7.80;1.00;;;;;;4923579;29;20181;-89
2023/03/02 12:43:11;;;;;;;22.23;13.30;;;7.90;1.00;;;;;;4927454;29;20196;-87
2023/03/02 12:45:56;;;;;;;21.93;13.60;;;8.00;99.90;;;;;;4927007;29;20174;-89
2023/03/02 12:48:44;;;;;;;17.83;13.03;;;8.00;1.00;;;;;;4923298;29;20185;-88
2023/03/02 12:51:21;;;;;;;20.03;13.40;;;8.00;1.00;;;;;;4919868;29;20190;-89
2023/03/02 12:53:48;;;;;;;20.87;13.77;;;8.00;99.90;;;;;;4919800;29;20196;-88
2023/03/02 12:56:24;;;;;;;19.30;12.43;;;8.00;99.90;;;;;;4919577;29;20186;-89
2023/03/02 12:58:51;;;;;;;23.20;14.17;;;8.00;99.90;;;;;;4928125;29;20188;-89
2023/03/02 13:01:26;;;;;;;18.97;13.47;;;8.20;99.90;;;;;;4929590;29;20189;-88
2023/03/02 13:03:52;;;;;;;20.63;13.83;;;8.20;1.00;;;;;;4926665;29;20643;-87
2023/03/02 13:06:19;;;;;;;21.60;14.10;;;8.30;20.80;;;;;;4936569;29;20180;-87
2023/03/02 13:08:50;;;;;;;19.00;13.03;;;8.40;99.90;;;;;;4934060;29;20205;-87
2023/03/02 13:11:34;;;;;;;19.90;13.07;;;8.40;1.00;;;;;;4918637;29;20228;-85
2023/03/02 13:14:26;;;;;;;19.13;13.40;;;8.60;1.00;;;;;;4920960;29;20222;-87
2023/03/02 13:16:58;;;;;;;22.27;13.20;;;8.50;1.00;;;;;;4923172;29;20188;-88
2023/03/02 13:19:26;;;;;;;19.73;13.23;;;8.70;99.90;;;;;;4921755;29;20170;-87
2023/03/02 13:21:54;;;;;;;21.00;13.50;;;8.60;99.90;;;;;;4919714;29;20190;-89
2023/03/02 13:24:33;;;;;;;20.37;13.07;;;8.60;99.90;;;;;;4921945;29;20173;-90
2023/03/02 13:27:14;;;;;;;25.63;13.77;;;8.60;1.00;;;;;;4920216;29;20642;-88
2023/03/02 13:29:39;;;;;;;21.27;13.40;;;8.40;99.90;;;;;;4923801;29;20273;-89
2023/03/02 13:32:27;;;;;;;19.67;13.57;;;8.90;99.90;;;;;;4926010;29;20619;-89
2023/03/02 13:34:58;;;;;;;21.87;13.33;;;8.90;1.00;;;;;;4922210;29;20189;-91